createdAt,value
2018-06-23T00:00:13.405Z,95011.78
2018-06-23T00:02:39.716Z,95002.28
2018-06-23T00:05:06.056Z,95014.83
2018-06-23T00:07:32.468Z,95009.34
2018-06-23T00:09:58.796Z,95008.16
2018-06-23T00:12:25.153Z,95015.48
2018-06-23T00:14:51.541Z,95021.12
2018-06-23T00:17:17.876Z,95029.59
2018-06-23T00:19:44.204Z,95028.11
2018-06-23T00:22:10.539Z,95027.76
2018-06-23T00:24:36.992Z,95022.84
2018-06-23T00:27:03.372Z,95033.63
2018-06-23T00:29:29.691Z,95032.34
2018-06-23T00:31:56.060Z,95032.97
2018-06-23T00:34:22.410Z,95034.19
2018-06-23T00:36:48.727Z,95038.98
2018-06-23T00:39:15.044Z,95037.11
2018-06-23T00:41:41.357Z,95035.83
2018-06-23T00:44:07.680Z,95038.30
2018-06-23T00:46:34.077Z,95031.37
2018-06-23T00:49:00.409Z,95033.30
2018-06-23T00:51:26.756Z,95034.67
2018-06-23T00:53:53.115Z,95049.55
2018-06-23T00:56:19.438Z,95045.70
2018-06-23T00:58:45.795Z,95057.00
2018-06-23T01:01:12.172Z,95049.79
2018-06-23T01:03:38.495Z,95050.22
2018-06-23T01:06:04.830Z,95044.16
2018-06-23T01:08:31.146Z,95038.95
2018-06-23T01:10:57.757Z,95046.36
2018-06-23T01:13:24.061Z,95047.56
2018-06-23T01:15:50.397Z,95052.80
2018-06-23T01:18:16.723Z,95048.63
2018-06-23T01:20:43.120Z,95038.81
2018-06-23T01:23:09.457Z,95045.78
2018-06-23T01:25:35.841Z,95051.51
2018-06-23T01:28:02.195Z,95049.80
2018-06-23T01:30:28.503Z,95046.48
2018-06-23T01:32:54.820Z,95049.72
2018-06-23T01:35:21.160Z,95050.05
2018-06-23T01:37:47.585Z,95054.52
2018-06-23T01:40:13.949Z,95047.14
2018-06-23T01:42:40.291Z,95046.67
2018-06-23T01:45:06.628Z,95049.66
2018-06-23T01:47:33.994Z,95053.53
2018-06-23T01:50:00.368Z,95053.00
2018-06-23T01:52:26.687Z,95056.76
2018-06-23T01:54:53.112Z,95060.58
2018-06-23T01:57:19.439Z,95052.55
2018-06-23T01:59:45.812Z,95066.55
2018-06-23T02:02:12.130Z,95065.51
2018-06-23T02:04:38.479Z,95073.86
2018-06-23T02:07:04.875Z,95079.69
2018-06-23T02:09:31.214Z,95073.36
2018-06-23T02:11:57.593Z,95085.46
2018-06-23T02:14:23.904Z,95088.53
2018-06-23T02:16:50.242Z,95090.52
2018-06-23T02:19:16.622Z,95094.48
2018-06-23T02:21:43.020Z,95087.61
2018-06-23T02:24:09.353Z,95107.44
2018-06-23T02:26:35.687Z,95100.36
2018-06-23T02:29:01.992Z,95109.97
2018-06-23T02:31:28.383Z,95108.55
2018-06-23T02:33:54.760Z,95105.92
2018-06-23T02:36:21.082Z,95109.67
2018-06-23T02:38:47.432Z,95111.27
2018-06-23T02:41:13.757Z,95114.44
2018-06-23T02:43:40.132Z,95110.27
2018-06-23T02:46:06.567Z,95116.37
2018-06-23T02:48:32.887Z,95121.40
2018-06-23T02:50:59.204Z,95118.98
2018-06-23T02:53:25.568Z,95117.13
2018-06-23T02:55:51.880Z,95115.88
2018-06-23T02:58:18.189Z,95114.49
2018-06-23T03:00:44.548Z,95116.40
2018-06-23T03:03:10.859Z,95120.73
2018-06-23T03:05:37.180Z,95126.77
2018-06-23T03:08:03.496Z,95129.27
2018-06-23T03:10:29.880Z,95133.03
2018-06-23T03:12:56.196Z,95136.48
2018-06-23T03:15:22.552Z,95128.33
2018-06-23T03:17:48.861Z,95127.38
2018-06-23T03:20:15.167Z,95141.92
2018-06-23T03:22:41.500Z,95129.68
2018-06-23T03:25:07.816Z,95131.56
2018-06-23T03:27:34.132Z,95141.09
2018-06-23T03:30:00.447Z,95134.88
2018-06-23T03:32:26.765Z,95142.38
2018-06-23T03:34:53.096Z,95151.05
2018-06-23T03:37:19.459Z,95154.08
2018-06-23T03:39:45.780Z,95162.17
2018-06-23T03:42:12.091Z,95166.45
2018-06-23T03:44:38.403Z,95171.66
2018-06-23T03:47:04.747Z,95171.84
2018-06-23T03:49:31.077Z,95177.69
2018-06-23T03:51:57.400Z,95178.05
2018-06-23T03:54:23.737Z,95182.06
2018-06-23T03:56:50.070Z,95180.31
2018-06-23T03:59:16.468Z,95178.09
2018-06-23T04:01:42.780Z,95187.30
2018-06-23T04:04:09.119Z,95186.52
2018-06-23T04:06:35.445Z,95183.12
2018-06-23T04:09:01.766Z,95184.54
2018-06-23T04:11:28.096Z,95186.80
2018-06-23T04:13:54.445Z,95195.59
2018-06-23T04:16:20.758Z,95193.23
2018-06-23T04:18:47.063Z,95208.36
2018-06-23T04:21:13.371Z,95198.98
2018-06-23T04:23:39.700Z,95209.70
2018-06-23T04:26:06.011Z,95210.03
2018-06-23T04:28:32.350Z,95215.36
2018-06-23T04:30:58.663Z,95222.58
2018-06-23T04:33:24.990Z,95225.26
2018-06-23T04:35:51.315Z,95217.94
2018-06-23T04:38:17.636Z,95218.30
2018-06-23T04:40:43.959Z,95224.78
2018-06-23T04:43:10.272Z,95213.89
2018-06-23T04:45:36.600Z,95213.06
2018-06-23T04:48:02.951Z,95218.76
2018-06-23T04:50:29.279Z,95210.71
2018-06-23T04:52:55.614Z,95213.34
2018-06-23T04:55:21.968Z,95198.66
2018-06-23T04:57:48.296Z,95204.69
2018-06-23T05:00:14.610Z,95210.71
2018-06-23T05:02:40.933Z,95216.92
2018-06-23T05:05:07.280Z,95220.88
2018-06-23T05:07:33.709Z,95218.61
2018-06-23T05:10:00.040Z,95227.50
2018-06-23T05:12:26.373Z,95237.63
2018-06-23T05:14:52.709Z,95237.93
2018-06-23T05:17:19.046Z,95248.50
2018-06-23T05:19:45.416Z,95245.47
2018-06-23T05:22:11.754Z,95259.97
2018-06-23T05:24:38.069Z,95263.55
2018-06-23T05:27:04.431Z,95270.27
2018-06-23T05:29:30.761Z,95271.31
2018-06-23T05:31:57.088Z,95273.20
2018-06-23T05:34:23.463Z,95267.09
2018-06-23T05:36:49.793Z,95276.88
2018-06-23T05:39:16.130Z,95279.22
2018-06-23T05:41:42.437Z,95283.34
2018-06-23T05:44:08.750Z,95279.91
2018-06-23T05:49:07.499Z,95288.28
2018-06-23T05:51:33.831Z,95280.77
2018-06-23T05:54:00.151Z,95282.48
2018-06-23T05:56:26.495Z,95284.55
2018-06-23T05:58:52.815Z,95283.86
2018-06-23T06:01:19.128Z,95279.76
2018-06-23T06:03:45.451Z,95281.78
2018-06-23T06:06:11.783Z,95282.77
2018-06-23T06:08:38.107Z,95295.52
2018-06-23T06:11:04.429Z,95290.41
2018-06-23T06:13:30.751Z,95293.00
2018-06-23T06:15:57.083Z,95299.84
2018-06-23T06:18:23.391Z,95288.48
2018-06-23T06:20:49.714Z,95295.52
2018-06-23T06:23:16.031Z,95286.88
2018-06-23T06:25:42.348Z,95288.36
2018-06-23T06:28:08.665Z,95290.10
2018-06-23T06:30:35.000Z,95295.20
2018-06-23T06:33:01.341Z,95268.18
2018-06-23T06:35:27.651Z,95295.89
2018-06-23T06:37:54.003Z,95294.59
2018-06-23T06:40:20.311Z,95299.75
2018-06-23T06:42:46.633Z,95290.81
2018-06-23T06:45:14.516Z,95293.25
2018-06-23T06:47:40.847Z,95299.88
2018-06-23T06:50:07.187Z,95290.04
2018-06-23T06:52:33.514Z,95295.38
2018-06-23T06:54:59.836Z,95302.09
2018-06-23T06:57:26.151Z,95304.66
2018-06-23T06:59:52.465Z,95305.48
2018-06-23T07:02:18.783Z,95308.33
2018-06-23T07:04:45.121Z,95308.91
2018-06-23T07:07:11.431Z,95313.50
2018-06-23T07:09:37.798Z,95319.06
2018-06-23T07:12:04.117Z,95305.58
2018-06-23T07:14:30.424Z,95313.58
2018-06-23T07:16:56.743Z,95306.27
2018-06-23T07:19:23.052Z,95302.95
2018-06-23T07:21:49.396Z,95296.72
2018-06-23T07:24:15.782Z,95297.94
2018-06-23T07:26:42.094Z,95293.12
2018-06-23T07:29:08.410Z,95299.75
2018-06-23T07:31:34.771Z,95293.95
2018-06-23T07:34:01.127Z,95301.81
2018-06-23T07:36:27.455Z,95300.89
2018-06-23T07:38:53.828Z,95297.08
2018-06-23T07:41:20.138Z,95304.59
2018-06-23T07:43:46.495Z,95303.71
2018-06-23T07:46:12.860Z,95306.63
2018-06-23T07:48:39.176Z,95300.13
2018-06-23T07:51:05.500Z,95304.73
2018-06-23T07:53:31.898Z,95303.59
2018-06-23T07:55:58.259Z,95302.88
2018-06-23T07:58:24.572Z,95304.00
2018-06-23T08:00:50.923Z,95306.57
2018-06-23T08:03:17.309Z,95295.33
2018-06-23T08:05:43.623Z,95303.14
2018-06-23T08:08:09.980Z,95313.59
2018-06-23T08:10:36.295Z,95311.36
2018-06-23T08:13:02.645Z,95298.29
2018-06-23T08:15:29.015Z,95304.89
2018-06-23T08:17:55.337Z,95303.28
2018-06-23T08:20:21.727Z,95300.47
2018-06-23T08:22:48.088Z,95320.87
2018-06-23T08:25:14.417Z,95311.94
2018-06-23T08:27:40.724Z,95304.02
2018-06-23T08:30:07.113Z,95305.87
2018-06-23T08:32:33.462Z,95305.92
2018-06-23T08:34:59.771Z,95307.85
2018-06-23T08:37:26.108Z,95298.88
2018-06-23T08:39:52.424Z,95302.48
2018-06-23T08:42:18.769Z,95298.84
2018-06-23T08:44:45.115Z,95296.92
2018-06-23T08:47:11.432Z,95297.28
2018-06-23T08:49:37.780Z,95297.70
2018-06-23T08:52:04.111Z,95276.64
2018-06-23T08:54:30.492Z,95297.81
2018-06-23T08:56:56.818Z,95282.58
2018-06-23T08:59:23.144Z,95294.45
2018-06-23T09:01:49.612Z,95287.13
2018-06-23T09:04:15.893Z,95304.86
2018-06-23T09:06:42.219Z,95307.77
2018-06-23T09:09:08.601Z,95302.98
2018-06-23T09:11:34.981Z,95295.01
2018-06-23T09:14:01.295Z,95294.32
2018-06-23T09:16:27.646Z,95291.66
2018-06-23T09:18:53.960Z,95296.81
2018-06-23T09:21:20.317Z,95295.02
2018-06-23T09:23:46.631Z,95302.47
2018-06-23T09:26:12.944Z,95290.45
2018-06-23T09:28:39.292Z,95301.46
2018-06-23T09:31:05.691Z,95295.02
2018-06-23T09:33:32.067Z,95295.67
2018-06-23T09:35:58.379Z,95289.63
2018-06-23T09:38:24.747Z,95298.14
2018-06-23T09:40:51.067Z,95289.44
2018-06-23T09:43:17.385Z,95283.51
2018-06-23T09:45:43.750Z,95288.28
2018-06-23T09:48:10.084Z,95265.37
2018-06-23T09:50:36.452Z,95275.16
2018-06-23T09:53:02.791Z,95279.36
2018-06-23T09:55:29.116Z,95275.27
2018-06-23T09:57:55.487Z,95270.94
2018-06-23T10:00:21.805Z,95279.91
2018-06-23T10:02:48.167Z,95277.23
2018-06-23T10:05:14.516Z,95275.07
2018-06-23T10:07:40.872Z,95275.30
2018-06-23T10:10:07.227Z,95272.59
2018-06-23T10:12:33.571Z,95273.05
2018-06-23T10:14:59.892Z,95267.52
2018-06-23T10:17:26.221Z,95270.33
2018-06-23T10:19:52.537Z,95264.58
2018-06-23T10:22:18.914Z,95249.16
2018-06-23T10:24:45.224Z,95255.97
2018-06-23T10:27:11.580Z,95253.02
2018-06-23T10:29:37.904Z,95256.66
2018-06-23T10:32:04.272Z,95243.59
2018-06-23T10:34:30.586Z,95244.55
2018-06-23T10:36:56.932Z,95249.60
2018-06-23T10:39:23.290Z,95239.75
2018-06-23T10:41:49.649Z,95234.46
2018-06-23T10:44:16.003Z,95229.25
2018-06-23T10:46:42.357Z,95220.47
2018-06-23T10:49:08.664Z,95229.07
2018-06-23T10:51:35.020Z,95227.68
2018-06-23T10:54:01.391Z,95220.59
2018-06-23T10:56:27.751Z,95211.75
2018-06-23T10:58:54.077Z,95202.41
2018-06-23T11:01:20.395Z,95186.08
2018-06-23T11:03:46.758Z,95197.56
2018-06-23T11:06:13.116Z,95199.50
2018-06-23T11:08:39.423Z,95198.20
2018-06-23T11:11:05.775Z,95192.12
2018-06-23T11:13:33.112Z,95182.32
2018-06-23T11:15:59.475Z,95184.89
2018-06-23T11:18:25.841Z,95182.63
2018-06-23T11:20:52.147Z,95173.64
2018-06-23T11:23:18.492Z,95174.00
2018-06-23T11:25:44.804Z,95176.09
2018-06-23T11:28:11.163Z,95168.30
2018-06-23T11:30:37.489Z,95165.67
2018-06-23T11:33:03.800Z,95157.94
2018-06-23T11:35:30.131Z,95164.61
2018-06-23T11:37:56.458Z,95161.92
2018-06-23T11:40:22.819Z,95152.34
2018-06-23T11:42:49.141Z,95148.56
2018-06-23T11:45:15.525Z,95134.33
2018-06-23T11:47:41.843Z,95154.36
2018-06-23T11:50:08.208Z,95145.02
2018-06-23T11:52:34.635Z,95146.43
2018-06-23T11:55:00.947Z,95145.36
2018-06-23T11:57:27.345Z,95139.52
2018-06-23T11:59:53.685Z,95142.45
2018-06-23T12:02:20.055Z,95141.73
2018-06-23T12:04:46.375Z,95146.79
2018-06-23T12:07:12.698Z,95136.80
2018-06-23T12:09:39.068Z,95138.34
2018-06-23T12:12:05.423Z,95134.39
2018-06-23T12:14:31.803Z,95141.56
2018-06-23T12:16:58.127Z,95140.44
2018-06-23T12:19:24.443Z,95138.69
2018-06-23T12:21:50.775Z,95139.67
2018-06-23T12:24:17.155Z,95133.92
2018-06-23T12:26:43.493Z,95132.09
2018-06-23T12:29:09.806Z,95130.95
2018-06-23T12:31:36.116Z,95122.14
2018-06-23T12:34:02.480Z,95120.30
2018-06-23T12:36:28.837Z,95115.39
2018-06-23T12:38:55.173Z,95116.37
2018-06-23T12:41:21.565Z,95112.53
2018-06-23T12:43:47.931Z,95116.62
2018-06-23T12:46:14.317Z,95116.98
2018-06-23T12:48:40.644Z,95120.91
2018-06-23T12:51:06.961Z,95109.63
2018-06-23T12:53:33.315Z,95118.92
2018-06-23T12:55:59.659Z,95117.15
2018-06-23T12:58:25.968Z,95103.64
2018-06-23T13:00:52.284Z,95114.84
2018-06-23T13:03:18.641Z,95096.80
2018-06-23T13:05:44.952Z,95105.64
2018-06-23T13:08:11.315Z,95103.70
2018-06-23T13:10:37.640Z,95093.40
2018-06-23T13:13:04.013Z,95105.40
2018-06-23T13:15:30.327Z,95099.52
2018-06-23T13:17:56.683Z,95093.73
2018-06-23T13:20:23.035Z,95095.85
2018-06-23T13:22:49.350Z,95092.39
2018-06-23T13:25:15.715Z,95091.42
2018-06-23T13:27:42.031Z,95096.53
2018-06-23T13:30:08.343Z,95107.60
2018-06-23T13:32:34.656Z,95097.91
2018-06-23T13:35:00.978Z,95103.70
2018-06-23T13:37:27.330Z,95095.36
2018-06-23T13:39:53.638Z,95102.27
2018-06-23T13:42:19.948Z,95092.34
2018-06-23T13:44:46.274Z,95098.66
2018-06-23T13:47:12.769Z,95095.30
2018-06-23T13:49:38.964Z,95093.13
2018-06-23T13:52:05.320Z,95091.90
2018-06-23T13:54:31.704Z,95090.25
2018-06-23T13:56:58.051Z,95089.89
2018-06-23T13:59:24.368Z,95095.27
2018-06-23T14:01:50.685Z,95088.24
2018-06-23T14:04:17.040Z,95092.42
2018-06-23T14:06:43.381Z,95088.55
2018-06-23T14:09:09.699Z,95088.57
2018-06-23T14:11:36.012Z,95090.00
2018-06-23T14:14:02.351Z,95082.26
2018-06-23T14:16:28.717Z,95082.83
2018-06-23T14:18:55.032Z,95078.91
2018-06-23T14:21:21.381Z,95075.83
2018-06-23T14:23:47.691Z,95075.94
2018-06-23T14:26:14.042Z,95073.14
2018-06-23T14:28:40.457Z,95069.67
2018-06-23T14:31:06.778Z,95057.76
2018-06-23T14:33:33.163Z,95067.78
2018-06-23T14:35:59.483Z,95060.54
2018-06-23T14:38:25.847Z,95069.42
2018-06-23T14:40:52.309Z,95063.44
2018-06-23T14:43:18.633Z,95067.53
2018-06-23T14:45:44.963Z,95066.44
2018-06-23T14:48:11.307Z,95060.34
2018-06-23T14:50:37.659Z,95055.43
2018-06-23T14:53:04.023Z,95068.98
2018-06-23T14:55:30.380Z,95056.33
2018-06-23T14:57:56.683Z,95061.08
2018-06-23T15:00:23.032Z,95065.52
2018-06-23T15:02:49.360Z,95066.45
2018-06-23T15:05:15.705Z,95076.72
2018-06-23T15:07:42.019Z,95072.38
2018-06-23T15:10:08.365Z,95068.71
2018-06-23T15:12:34.758Z,95075.38
2018-06-23T15:15:01.113Z,95070.11
2018-06-23T15:17:27.438Z,95078.64
2018-06-23T15:19:53.770Z,95082.59
2018-06-23T15:22:20.084Z,95080.97
2018-06-23T15:24:46.438Z,95084.63
2018-06-23T15:27:12.798Z,95083.89
2018-06-23T15:29:39.144Z,95094.80
2018-06-23T15:32:05.459Z,95085.90
2018-06-23T15:34:31.799Z,95092.21
2018-06-23T15:36:58.122Z,95103.83
2018-06-23T15:39:24.501Z,95098.77
2018-06-23T15:41:50.799Z,95089.94
2018-06-23T15:44:17.180Z,95097.48
2018-06-23T15:46:43.498Z,95096.97
2018-06-23T15:49:09.808Z,95101.46
2018-06-23T15:51:36.132Z,95108.08
2018-06-23T15:54:02.508Z,95110.80
2018-06-23T15:56:28.820Z,95102.32
2018-06-23T15:58:55.219Z,95110.28
2018-06-23T16:01:21.529Z,95105.42
2018-06-23T16:03:47.880Z,95119.48
2018-06-23T16:06:14.191Z,95114.62
2018-06-23T16:08:40.508Z,95117.31
2018-06-23T16:11:06.838Z,95115.91
2018-06-23T16:13:33.155Z,95117.70
2018-06-23T16:15:59.468Z,95115.91
2018-06-23T16:18:25.820Z,95119.62
2018-06-23T16:20:52.140Z,95121.48
2018-06-23T16:23:18.493Z,95123.60
2018-06-23T16:25:44.820Z,95128.35
2018-06-23T16:28:11.151Z,95131.76
2018-06-23T16:30:37.492Z,95128.19
2018-06-23T16:33:03.852Z,95131.23
2018-06-23T16:35:30.312Z,95131.37
2018-06-23T16:37:56.539Z,95133.35
2018-06-23T16:40:22.888Z,95139.48
2018-06-23T16:42:49.208Z,95132.72
2018-06-23T16:45:15.576Z,95138.70
2018-06-23T16:47:41.892Z,95142.31
2018-06-23T16:50:08.240Z,95144.48
2018-06-23T16:52:34.643Z,95147.47
2018-06-23T16:55:00.936Z,95150.84
2018-06-23T16:57:27.280Z,95154.80
2018-06-23T16:59:53.588Z,95156.97
2018-06-23T17:02:19.897Z,95147.88
2018-06-23T17:04:46.250Z,95163.58
2018-06-23T17:07:12.563Z,95159.55
2018-06-23T17:09:38.909Z,95169.87
2018-06-23T17:12:05.240Z,95164.80
2018-06-23T17:14:31.547Z,95166.36
2018-06-23T17:16:57.852Z,95163.91
2018-06-23T17:19:24.168Z,95161.33
2018-06-23T17:21:50.520Z,95165.92
2018-06-23T17:24:16.831Z,95161.73
2018-06-23T17:26:43.144Z,95163.91
2018-06-23T17:29:09.463Z,95164.73
2018-06-23T17:31:35.819Z,95170.03
2018-06-23T17:34:02.178Z,95176.40
2018-06-23T17:36:28.508Z,95171.84
2018-06-23T17:38:54.861Z,95170.16
2018-06-23T17:41:21.180Z,95177.85
2018-06-23T17:43:47.487Z,95157.38
2018-06-23T17:46:13.816Z,95161.00
2018-06-23T17:48:40.160Z,95172.64
2018-06-23T17:51:06.466Z,95183.94
2018-06-23T17:53:32.771Z,95185.70
2018-06-23T17:55:59.119Z,95181.27
2018-06-23T17:58:25.460Z,95185.27
2018-06-23T18:00:51.763Z,95196.62
2018-06-23T18:03:18.120Z,95193.02
2018-06-23T18:05:44.451Z,95197.34
2018-06-23T18:08:10.802Z,95202.23
2018-06-23T18:10:37.185Z,95193.03
2018-06-23T18:13:03.640Z,95197.83
2018-06-23T18:15:29.995Z,95198.02
2018-06-23T18:17:56.368Z,95209.95
2018-06-23T18:20:22.738Z,95209.27
2018-06-23T18:22:49.054Z,95206.87
2018-06-23T18:25:15.378Z,95206.16
2018-06-23T18:27:41.708Z,95212.66
2018-06-23T18:30:08.044Z,95215.31
2018-06-23T18:32:34.355Z,95216.89
2018-06-23T18:35:00.667Z,95219.58
2018-06-23T18:37:26.980Z,95220.95
2018-06-23T18:39:53.292Z,95228.19
2018-06-23T18:42:19.628Z,95233.12
2018-06-23T18:44:45.959Z,95235.84
2018-06-23T18:47:12.268Z,95222.09
2018-06-23T18:49:38.580Z,95238.23
2018-06-23T18:52:04.907Z,95242.16
2018-06-23T18:54:31.274Z,95240.97
2018-06-23T18:56:57.619Z,95257.88
2018-06-23T18:59:23.928Z,95258.80
2018-06-23T19:01:50.250Z,95269.34
2018-06-23T19:04:16.636Z,95273.67
2018-06-23T19:06:42.963Z,95275.92
2018-06-23T19:09:09.409Z,95274.03
2018-06-23T19:11:35.646Z,95276.25
2018-06-23T19:14:02.025Z,95276.44
2018-06-23T19:16:28.331Z,95280.72
2018-06-23T19:18:54.641Z,95280.53
2018-06-23T19:21:20.983Z,95294.16
2018-06-23T19:23:47.313Z,95291.95
2018-06-23T19:26:13.632Z,95297.34
2018-06-23T19:28:39.943Z,95289.84
2018-06-23T19:31:06.304Z,95290.31
2018-06-23T19:33:32.627Z,95288.97
2018-06-23T19:35:58.933Z,95285.46
2018-06-23T19:38:25.307Z,95280.77
2018-06-23T19:40:51.659Z,95291.91
2018-06-23T19:43:18.031Z,95288.27
2018-06-23T19:45:44.348Z,95294.64
2018-06-23T19:48:10.710Z,95287.78
2018-06-23T19:50:37.023Z,95293.81
2018-06-23T19:53:03.336Z,95278.80
2018-06-23T19:55:29.670Z,95271.81
2018-06-23T19:57:55.983Z,95288.94
2018-06-23T20:00:22.295Z,95283.08
2018-06-23T20:02:48.607Z,95284.47
2018-06-23T20:05:14.932Z,95274.75
2018-06-23T20:07:41.248Z,95284.01
2018-06-23T20:10:07.572Z,95285.06
2018-06-23T20:12:33.896Z,95274.63
2018-06-23T20:15:00.229Z,95281.02
2018-06-23T20:17:26.544Z,95291.14
2018-06-23T20:19:52.857Z,95286.22
2018-06-23T20:22:19.268Z,95292.74
2018-06-23T20:24:45.571Z,95288.17
2018-06-23T20:27:11.883Z,95295.47
2018-06-23T20:29:38.232Z,95291.66
2018-06-23T20:32:04.549Z,95295.02
2018-06-23T20:34:30.863Z,95295.61
2018-06-23T20:36:57.176Z,95303.77
2018-06-23T20:39:23.528Z,95295.14
2018-06-23T20:41:49.904Z,95301.51
2018-06-23T20:44:16.219Z,95302.56
2018-06-23T20:46:42.537Z,95296.63
2018-06-23T20:49:08.921Z,95297.00
2018-06-23T20:51:35.235Z,95295.30
2018-06-23T20:54:01.551Z,95289.02
2018-06-23T20:56:27.868Z,95295.11
2018-06-23T20:58:54.183Z,95297.22
2018-06-23T21:01:20.574Z,95300.21
2018-06-23T21:03:46.836Z,95294.83
2018-06-23T21:06:13.159Z,95298.87
2018-06-23T21:08:39.509Z,95294.45
2018-06-23T21:11:05.824Z,95288.52
2018-06-23T21:13:32.167Z,95294.09
2018-06-23T21:15:58.524Z,95299.38
2018-06-23T21:18:24.843Z,95297.63
2018-06-23T21:20:51.204Z,95299.78
2018-06-23T21:23:17.550Z,95298.00
2018-06-23T21:25:43.872Z,95296.83
2018-06-23T21:28:10.340Z,95303.56
2018-06-23T21:30:36.660Z,95297.30
2018-06-23T21:33:02.979Z,95293.95
2018-06-23T21:35:29.332Z,95297.34
2018-06-23T21:37:55.680Z,95300.47
2018-06-23T21:40:22.052Z,95301.98
2018-06-23T21:42:48.375Z,95296.09
2018-06-23T21:45:14.691Z,95295.22
2018-06-23T21:47:41.041Z,95298.86
2018-06-23T21:50:07.355Z,95296.91
2018-06-23T21:52:33.672Z,95296.27
2018-06-23T21:54:59.988Z,95294.38
2018-06-23T21:57:26.330Z,95286.23
2018-06-23T21:59:52.644Z,95287.53
2018-06-23T22:02:18.966Z,95293.97
2018-06-23T22:04:45.311Z,95288.77
2018-06-23T22:07:11.636Z,95283.71
2018-06-23T22:09:37.947Z,95283.11
2018-06-23T22:12:04.335Z,95287.98
2018-06-23T22:14:30.651Z,95285.35
2018-06-23T22:16:56.968Z,95289.22
2018-06-23T22:19:23.305Z,95290.59
2018-06-23T22:21:49.607Z,95294.97
2018-06-23T22:24:15.920Z,95288.67
2018-06-23T22:26:42.235Z,95288.70
2018-06-23T22:29:08.551Z,95286.72
2018-06-23T22:31:34.861Z,95293.52
2018-06-23T22:34:01.236Z,95300.66
2018-06-23T22:36:27.551Z,95299.28
2018-06-23T22:38:53.906Z,95290.95
2018-06-23T22:41:20.255Z,95291.50
2018-06-23T22:43:46.591Z,95290.76
2018-06-23T22:46:12.909Z,95294.30
2018-06-23T22:48:39.230Z,95294.67
2018-06-23T22:51:05.539Z,95288.28
2018-06-23T22:53:31.878Z,95284.22
2018-06-23T22:55:58.188Z,95288.41
2018-06-23T22:58:24.496Z,95283.86
2018-06-23T23:00:50.803Z,95276.91
2018-06-23T23:03:17.181Z,95283.81
2018-06-23T23:05:43.513Z,95275.48
2018-06-23T23:08:09.865Z,95283.63
2018-06-23T23:10:36.233Z,95287.44
2018-06-23T23:13:02.598Z,95277.64
2018-06-23T23:15:28.922Z,95274.83
2018-06-23T23:17:55.290Z,95275.24
2018-06-23T23:20:21.604Z,95262.77
2018-06-23T23:22:47.911Z,95261.89
2018-06-23T23:25:15.271Z,95273.35
2018-06-23T23:27:41.579Z,95268.47
2018-06-23T23:30:07.970Z,95264.80
2018-06-23T23:32:34.281Z,95256.66
2018-06-23T23:35:00.632Z,95257.34
2018-06-23T23:37:26.940Z,95260.87
2018-06-23T23:39:53.291Z,95244.74
2018-06-23T23:42:19.604Z,95250.52
2018-06-23T23:44:45.915Z,95238.75
2018-06-23T23:47:12.248Z,95258.17
2018-06-23T23:49:38.607Z,95258.80
2018-06-23T23:52:04.928Z,95249.23
2018-06-23T23:54:31.235Z,95256.05
2018-06-23T23:56:57.558Z,95255.72
2018-06-23T23:59:23.899Z,95251.80
